createdAt,value
2023-05-01T00:00:40.823Z,0.00
2023-05-01T00:01:40.790Z,0.00
2023-05-01T00:02:40.820Z,0.00
2023-05-01T00:03:40.918Z,0.00
2023-05-01T00:04:40.781Z,0.00
2023-05-01T00:05:40.728Z,0.00
2023-05-01T00:06:40.764Z,0.00
2023-05-01T00:07:40.702Z,0.00
2023-05-01T00:08:40.692Z,0.00
2023-05-01T00:09:40.674Z,0.00
2023-05-01T00:10:40.658Z,0.00
2023-05-01T00:11:40.655Z,0.00
2023-05-01T00:12:40.627Z,0.00
2023-05-01T00:13:40.617Z,0.00
2023-05-01T00:14:40.601Z,0.00
2023-05-01T00:15:40.581Z,0.00
2023-05-01T00:16:40.635Z,0.00
2023-05-01T00:17:40.571Z,0.00
2023-05-01T00:18:40.565Z,0.00
2023-05-01T00:19:40.525Z,0.00
2023-05-01T00:20:40.522Z,0.00
2023-05-01T00:21:40.498Z,0.00
2023-05-01T00:22:40.488Z,0.00
2023-05-01T00:23:40.479Z,0.00
2023-05-01T00:24:40.455Z,0.00
2023-05-01T00:25:40.442Z,0.00
2023-05-01T00:26:40.425Z,0.00
2023-05-01T00:27:40.487Z,0.00
2023-05-01T00:28:40.400Z,0.00
2023-05-01T00:29:40.380Z,0.00
2023-05-01T00:30:40.377Z,0.00
2023-05-01T00:31:40.429Z,0.00
2023-05-01T00:32:40.365Z,0.00
2023-05-01T00:33:40.326Z,0.00
2023-05-01T00:34:40.314Z,0.00
2023-05-01T00:35:40.299Z,0.00
2023-05-01T00:36:40.285Z,0.00
2023-05-01T00:37:40.294Z,0.00
2023-05-01T00:38:40.253Z,0.00
2023-05-01T00:39:40.240Z,0.00
2023-05-01T00:40:40.236Z,0.00
2023-05-01T00:41:40.211Z,0.00
2023-05-01T00:42:40.206Z,0.00
2023-05-01T00:43:40.195Z,0.00
2023-05-01T00:44:40.168Z,0.00
2023-05-01T00:45:40.177Z,0.00
2023-05-01T00:46:40.140Z,0.00
2023-05-01T00:47:40.136Z,0.00
2023-05-01T00:48:40.110Z,0.00
2023-05-01T00:49:40.098Z,0.00
2023-05-01T00:50:40.094Z,0.00
2023-05-01T00:51:40.063Z,0.00
2023-05-01T00:52:40.055Z,0.00
2023-05-01T00:53:40.035Z,0.00
2023-05-01T00:54:40.030Z,0.00
2023-05-01T00:55:40.006Z,0.00
2023-05-01T00:56:39.994Z,0.00
2023-05-01T00:57:39.988Z,0.00
2023-05-01T00:58:39.979Z,0.00
2023-05-01T00:59:39.954Z,0.00
2023-05-01T01:00:39.941Z,0.00
2023-05-01T01:01:40.044Z,0.00
2023-05-01T01:02:39.963Z,0.00
2023-05-01T01:03:39.897Z,0.00
2023-05-01T01:04:39.888Z,0.00
2023-05-01T01:05:39.860Z,0.00
2023-05-01T01:06:39.920Z,0.00
2023-05-01T01:07:39.827Z,0.00
2023-05-01T01:08:39.819Z,0.00
2023-05-01T01:09:39.808Z,0.00
2023-05-01T01:10:39.791Z,0.00
2023-05-01T01:11:39.770Z,0.00
2023-05-01T01:12:39.762Z,0.00
2023-05-01T01:13:39.748Z,0.00
2023-05-01T01:14:39.727Z,0.00
2023-05-01T01:15:39.712Z,0.00
2023-05-01T01:16:39.744Z,0.00
2023-05-01T01:17:39.701Z,0.00
2023-05-01T01:18:39.667Z,0.00
2023-05-01T01:19:39.668Z,0.00
2023-05-01T01:20:39.646Z,0.00
2023-05-01T01:21:39.625Z,0.00
2023-05-01T01:22:39.613Z,0.00
2023-05-01T01:23:39.596Z,0.00
2023-05-01T01:24:39.582Z,0.00
2023-05-01T01:25:39.567Z,0.00
2023-05-01T01:26:39.551Z,0.00
2023-05-01T01:27:39.537Z,0.00
2023-05-01T01:28:39.523Z,0.00
2023-05-01T01:29:39.525Z,0.00
2023-05-01T01:30:39.508Z,0.00
2023-05-01T01:31:39.518Z,0.00
2023-05-01T01:32:39.500Z,0.00
2023-05-01T01:33:39.444Z,0.00
2023-05-01T01:34:39.433Z,0.00
2023-05-01T01:35:39.419Z,0.00
2023-05-01T01:36:39.407Z,0.00
2023-05-01T01:37:39.389Z,0.00
2023-05-01T01:38:39.376Z,0.00
2023-05-01T01:39:39.358Z,0.00
2023-05-01T01:40:39.349Z,0.00
2023-05-01T01:41:39.330Z,0.00
2023-05-01T01:42:39.316Z,0.00
2023-05-01T01:43:39.299Z,0.00
2023-05-01T01:44:39.301Z,0.00
2023-05-01T01:45:39.269Z,0.00
2023-05-01T01:46:39.298Z,0.00
2023-05-01T01:47:39.281Z,0.00
2023-05-01T01:48:39.229Z,0.00
2023-05-01T01:49:39.211Z,0.00
2023-05-01T01:50:39.199Z,0.00
2023-05-01T01:51:39.179Z,0.00
2023-05-01T01:52:39.168Z,0.00
2023-05-01T01:53:39.161Z,0.00
2023-05-01T01:54:39.141Z,0.00
2023-05-01T01:55:39.132Z,0.00
2023-05-01T01:56:39.113Z,0.00
2023-05-01T01:57:39.093Z,0.00
2023-05-01T01:58:39.078Z,0.00
2023-05-01T01:59:39.060Z,0.00
2023-05-01T02:00:39.055Z,0.00
2023-05-01T02:01:39.075Z,0.00
2023-05-01T02:02:39.139Z,0.00
2023-05-01T02:03:39.243Z,0.00
2023-05-01T02:04:38.990Z,0.00
2023-05-01T02:05:38.978Z,0.00
2023-05-01T02:06:38.992Z,0.00
2023-05-01T02:07:38.952Z,0.00
2023-05-01T02:08:38.932Z,0.00
2023-05-01T02:09:38.916Z,0.00
2023-05-01T02:10:38.902Z,0.00
2023-05-01T02:11:38.883Z,0.00
2023-05-01T02:12:38.882Z,0.00
2023-05-01T02:13:38.860Z,0.00
2023-05-01T02:14:38.857Z,0.00
2023-05-01T02:15:38.829Z,0.00
2023-05-01T02:16:38.937Z,0.00
2023-05-01T02:17:38.809Z,0.00
2023-05-01T02:18:38.786Z,0.00
2023-05-01T02:19:38.771Z,0.00
2023-05-01T02:20:38.782Z,0.00
2023-05-01T02:21:38.740Z,0.00
2023-05-01T02:22:38.734Z,0.00
2023-05-01T02:23:38.715Z,0.00
2023-05-01T02:24:38.694Z,0.00
2023-05-01T02:25:38.694Z,0.00
2023-05-01T02:26:38.666Z,0.00
2023-05-01T02:27:38.666Z,0.00
2023-05-01T02:28:38.643Z,0.00
2023-05-01T02:29:38.621Z,0.00
2023-05-01T02:30:38.615Z,0.00
2023-05-01T02:31:38.625Z,0.00
2023-05-01T02:32:38.672Z,0.00
2023-05-01T02:33:38.573Z,0.00
2023-05-01T02:34:38.577Z,0.00
2023-05-01T02:35:38.674Z,0.00
2023-05-01T02:36:38.524Z,0.00
2023-05-01T02:37:38.500Z,0.00
2023-05-01T02:38:38.489Z,0.00
2023-05-01T02:39:38.474Z,0.00
2023-05-01T02:40:38.459Z,0.00
2023-05-01T02:41:38.449Z,0.00
2023-05-01T02:42:38.446Z,0.00
2023-05-01T02:43:38.420Z,0.00
2023-05-01T02:44:38.404Z,0.00
2023-05-01T02:45:38.465Z,0.00
2023-05-01T02:46:38.474Z,0.00
2023-05-01T02:47:38.419Z,0.00
2023-05-01T02:48:38.350Z,0.00
2023-05-01T02:49:38.344Z,0.00
2023-05-01T02:50:38.312Z,0.00
2023-05-01T02:51:38.298Z,0.00
2023-05-01T02:52:38.285Z,0.00
2023-05-01T02:53:38.270Z,0.00
2023-05-01T02:54:38.256Z,0.00
2023-05-01T02:55:38.240Z,0.00
2023-05-01T02:56:38.227Z,0.00
2023-05-01T02:57:38.209Z,0.00
2023-05-01T02:58:38.194Z,0.00
2023-05-01T02:59:38.183Z,0.00
2023-05-01T03:00:38.177Z,0.00
2023-05-01T03:01:38.251Z,0.00
2023-05-01T03:02:38.186Z,0.00
2023-05-01T03:03:38.122Z,0.00
2023-05-01T03:04:38.263Z,0.00
2023-05-01T03:05:38.091Z,0.00
2023-05-01T03:06:38.139Z,0.00
2023-05-01T03:07:38.068Z,0.00
2023-05-01T03:08:38.047Z,0.00
2023-05-01T03:09:38.040Z,0.00
2023-05-01T03:10:38.020Z,0.00
2023-05-01T03:11:38.008Z,0.00
2023-05-01T03:12:37.994Z,0.00
2023-05-01T03:13:37.986Z,0.00
2023-05-01T03:14:37.955Z,0.00
2023-05-01T03:15:37.949Z,0.00
2023-05-01T03:16:38.014Z,0.00
2023-05-01T03:17:37.949Z,0.00
2023-05-01T03:18:37.900Z,0.00
2023-05-01T03:19:37.892Z,0.00
2023-05-01T03:20:37.874Z,0.00
2023-05-01T03:21:37.860Z,0.00
2023-05-01T03:22:37.838Z,0.00
2023-05-01T03:23:37.825Z,0.00
2023-05-01T03:24:37.808Z,0.00
2023-05-01T03:25:37.793Z,0.00
2023-05-01T03:26:37.784Z,0.00
2023-05-01T03:27:37.765Z,0.00
2023-05-01T03:28:37.752Z,0.00
2023-05-01T03:29:37.732Z,0.00
2023-05-01T03:30:37.718Z,0.00
2023-05-01T03:31:37.759Z,0.00
2023-05-01T03:32:37.705Z,0.00
2023-05-01T03:33:37.673Z,0.00
2023-05-01T03:34:37.659Z,0.00
2023-05-01T03:35:37.716Z,0.00
2023-05-01T03:36:37.628Z,0.00
2023-05-01T03:37:37.630Z,0.00
2023-05-01T03:38:37.606Z,0.00
2023-05-01T03:39:37.602Z,0.00
2023-05-01T03:40:37.574Z,0.00
2023-05-01T03:41:37.554Z,4.00
2023-05-01T03:42:37.536Z,4.00
2023-05-01T03:43:37.523Z,0.00
2023-05-01T03:44:37.502Z,4.00
2023-05-01T03:45:37.495Z,4.00
2023-05-01T03:46:37.702Z,4.00
2023-05-01T03:47:37.493Z,4.00
2023-05-01T03:48:37.454Z,4.00
2023-05-01T03:49:37.452Z,8.00
2023-05-01T03:50:37.418Z,8.00
2023-05-01T03:51:37.405Z,8.00
2023-05-01T03:52:37.401Z,8.00
2023-05-01T03:53:37.383Z,12.00
2023-05-01T03:54:37.386Z,16.00
2023-05-01T03:55:37.346Z,12.00
2023-05-01T03:56:37.336Z,16.00
2023-05-01T03:57:37.315Z,20.00
2023-05-01T03:58:37.324Z,20.00
2023-05-01T03:59:37.291Z,20.00
2023-05-01T04:00:37.270Z,20.00
2023-05-01T04:01:37.261Z,24.00
2023-05-01T04:02:37.384Z,24.00
2023-05-01T04:03:37.271Z,28.00
2023-05-01T04:04:37.311Z,28.00
2023-05-01T04:05:37.201Z,32.00
2023-05-01T04:06:37.233Z,36.00
2023-05-01T04:07:37.168Z,40.00
2023-05-01T04:08:37.158Z,44.00
2023-05-01T04:09:37.139Z,48.00
2023-05-01T04:10:37.130Z,48.00
2023-05-01T04:11:37.115Z,56.00
2023-05-01T04:12:37.109Z,64.00
2023-05-01T04:13:37.078Z,68.00
2023-05-01T04:14:37.060Z,72.00
2023-05-01T04:15:37.058Z,80.00
2023-05-01T04:16:37.063Z,84.00
2023-05-01T04:17:37.056Z,88.00
2023-05-01T04:18:37.013Z,100.00
2023-05-01T04:19:36.987Z,104.00
2023-05-01T04:20:36.981Z,112.00
2023-05-01T04:21:36.959Z,120.00
2023-05-01T04:22:36.942Z,124.00
2023-05-01T04:23:36.935Z,132.00
2023-05-01T04:24:36.924Z,140.00
2023-05-01T04:25:36.905Z,148.00
2023-05-01T04:26:36.886Z,152.00
2023-05-01T04:27:36.874Z,160.00
2023-05-01T04:28:36.854Z,164.00
2023-05-01T04:29:36.837Z,172.00
2023-05-01T04:30:36.824Z,176.00
2023-05-01T04:31:36.852Z,184.00
2023-05-01T04:32:36.854Z,192.00
2023-05-01T04:33:36.778Z,200.00
2023-05-01T04:34:36.771Z,208.00
2023-05-01T04:35:36.753Z,216.00
2023-05-01T04:36:36.736Z,224.00
2023-05-01T04:37:36.715Z,228.00
2023-05-01T04:38:36.703Z,236.00
2023-05-01T04:39:36.695Z,240.00
2023-05-01T04:40:36.672Z,244.00
2023-05-01T04:41:36.680Z,252.00
2023-05-01T04:42:36.649Z,260.00
2023-05-01T04:43:36.629Z,264.00
2023-05-01T04:44:36.615Z,276.00
2023-05-01T04:45:36.600Z,284.00
2023-05-01T04:46:36.609Z,288.00
2023-05-01T04:47:36.592Z,296.00
2023-05-01T04:48:36.550Z,304.00
2023-05-01T04:49:36.541Z,316.00
2023-05-01T04:50:36.525Z,324.00
2023-05-01T04:51:36.509Z,336.00
2023-05-01T04:52:36.491Z,344.00
2023-05-01T04:53:36.482Z,352.00
2023-05-01T04:54:36.466Z,364.00
2023-05-01T04:55:36.460Z,368.00
2023-05-01T04:56:36.437Z,376.00
2023-05-01T04:57:36.417Z,388.00
2023-05-01T04:58:36.413Z,396.00
2023-05-01T04:59:36.394Z,408.00
2023-05-01T05:00:36.373Z,416.00
2023-05-01T05:01:36.399Z,432.00
2023-05-01T05:02:36.478Z,440.00
2023-05-01T05:03:36.418Z,452.00
2023-05-01T05:04:36.315Z,464.00
2023-05-01T05:05:36.303Z,480.00
2023-05-01T05:06:36.313Z,492.00
2023-05-01T05:07:36.268Z,508.00
2023-05-01T05:08:36.262Z,528.00
2023-05-01T05:09:36.241Z,548.00
2023-05-01T05:10:36.244Z,564.00
2023-05-01T05:11:36.213Z,584.00
2023-05-01T05:12:36.200Z,596.00
2023-05-01T05:13:36.187Z,608.00
2023-05-01T05:14:36.167Z,624.00
2023-05-01T05:15:36.161Z,636.00
2023-05-01T05:16:36.184Z,648.00
2023-05-01T05:17:36.140Z,656.00
2023-05-01T05:18:36.109Z,668.00
2023-05-01T05:19:36.101Z,680.00
2023-05-01T05:20:36.079Z,688.00
2023-05-01T05:21:36.067Z,700.00
2023-05-01T05:22:36.053Z,712.00
2023-05-01T05:23:36.040Z,724.00
2023-05-01T05:24:36.028Z,740.00
2023-05-01T05:25:36.026Z,752.00
2023-05-01T05:26:35.992Z,768.00
2023-05-01T05:27:35.980Z,784.00
2023-05-01T05:28:35.967Z,796.00
2023-05-01T05:29:35.951Z,808.00
2023-05-01T05:30:35.933Z,816.00
2023-05-01T05:31:35.995Z,828.00
2023-05-01T05:32:35.968Z,840.00
2023-05-01T05:33:35.888Z,844.00
2023-05-01T05:34:35.886Z,848.00
2023-05-01T05:35:35.876Z,848.00
2023-05-01T05:36:35.848Z,844.00
2023-05-01T05:37:35.851Z,840.00
2023-05-01T05:38:35.826Z,836.00
2023-05-01T05:39:35.804Z,832.00
2023-05-01T05:40:35.789Z,824.00
2023-05-01T05:41:35.777Z,816.00
2023-05-01T05:42:35.771Z,800.00
2023-05-01T05:43:35.754Z,792.00
2023-05-01T05:44:35.738Z,784.00
2023-05-01T05:45:35.923Z,776.00
2023-05-01T05:46:35.771Z,776.00
2023-05-01T05:47:35.700Z,776.00
2023-05-01T05:48:35.674Z,780.00
2023-05-01T05:49:35.662Z,788.00
2023-05-01T05:50:35.646Z,800.00
2023-05-01T05:51:35.642Z,812.00
2023-05-01T05:52:35.626Z,832.00
2023-05-01T05:53:35.604Z,856.00
2023-05-01T05:54:35.593Z,892.00
2023-05-01T05:55:35.582Z,924.00
2023-05-01T05:56:35.571Z,960.00
2023-05-01T05:57:35.549Z,996.00
2023-05-01T05:58:35.540Z,1028.00
2023-05-01T05:59:35.527Z,1064.00
2023-05-01T06:00:35.507Z,1108.00
2023-05-01T06:01:35.493Z,1152.00
2023-05-01T06:02:35.586Z,1200.00
2023-05-01T06:03:35.637Z,1256.00
2023-05-01T06:04:35.452Z,1324.00
2023-05-01T06:05:35.456Z,1372.00
2023-05-01T06:06:35.450Z,1408.00
2023-05-01T06:07:35.413Z,1452.00
2023-05-01T06:08:37.990Z,1492.00
2023-05-01T06:09:35.382Z,1544.00
2023-05-01T06:10:35.376Z,1588.00
2023-05-01T06:11:35.358Z,1620.00
2023-05-01T06:12:37.548Z,1668.00
2023-05-01T06:13:35.333Z,1712.00
2023-05-01T06:14:35.310Z,1772.00
2023-05-01T06:15:35.327Z,1796.00
2023-05-01T06:16:35.328Z,1860.00
2023-05-01T06:17:35.329Z,1928.00
2023-05-01T06:18:35.260Z,2016.00
2023-05-01T06:19:35.252Z,1972.00
2023-05-01T06:20:35.232Z,1940.00
2023-05-01T06:21:35.221Z,1996.00
2023-05-01T06:22:35.209Z,2032.00
2023-05-01T06:23:35.199Z,2092.00
2023-05-01T06:24:35.179Z,2148.00
2023-05-01T06:25:35.173Z,2184.00
2023-05-01T06:26:35.159Z,2260.00
2023-05-01T06:27:35.139Z,2276.00
2023-05-01T06:28:35.124Z,2388.00
2023-05-01T06:29:35.114Z,2408.00
2023-05-01T06:30:35.099Z,2460.00
2023-05-01T06:31:35.097Z,2760.00
2023-05-01T06:32:35.098Z,3024.00
2023-05-01T06:33:35.059Z,2952.00
2023-05-01T06:34:35.057Z,2736.00
2023-05-01T06:35:35.037Z,2728.00
2023-05-01T06:36:35.031Z,2620.00
2023-05-01T06:37:35.017Z,2568.00
2023-05-01T06:38:34.997Z,2560.00
2023-05-01T06:39:34.981Z,2572.00
2023-05-01T06:40:35.014Z,2568.00
2023-05-01T06:41:34.965Z,2556.00
2023-05-01T06:42:34.942Z,2568.00
2023-05-01T06:43:34.935Z,2572.00
2023-05-01T06:44:34.927Z,2592.00
2023-05-01T06:45:34.908Z,2636.00
2023-05-01T06:46:34.913Z,2720.00
2023-05-01T06:47:34.979Z,2804.00
2023-05-01T06:48:34.871Z,2816.00
2023-05-01T06:49:34.861Z,2844.00
2023-05-01T06:50:34.846Z,2804.00
2023-05-01T06:51:34.888Z,2736.00
2023-05-01T06:52:34.830Z,2676.00
2023-05-01T06:53:34.859Z,2620.00
2023-05-01T06:54:34.801Z,2560.00
2023-05-01T06:55:35.939Z,2500.00
2023-05-01T06:56:34.792Z,2472.00
2023-05-01T06:57:34.764Z,2444.00
2023-05-01T06:58:34.752Z,2412.00
2023-05-01T06:59:34.742Z,2392.00
2023-05-01T07:00:34.759Z,2392.00
2023-05-01T07:01:35.723Z,2404.00
2023-05-01T07:02:34.812Z,2416.00
2023-05-01T07:03:34.746Z,2432.00
2023-05-01T07:04:34.685Z,2464.00
2023-05-01T07:05:34.678Z,2500.00
2023-05-01T07:06:34.702Z,2536.00
2023-05-01T07:07:34.661Z,2568.00
2023-05-01T07:08:34.661Z,2608.00
2023-05-01T07:09:34.658Z,2656.00
2023-05-01T07:10:34.613Z,2716.00
2023-05-01T07:11:34.605Z,2776.00
2023-05-01T07:12:34.590Z,2852.00
2023-05-01T07:13:34.578Z,2924.00
2023-05-01T07:14:34.570Z,2976.00
2023-05-01T07:15:34.552Z,3028.00
2023-05-01T07:16:34.632Z,3072.00
2023-05-01T07:17:34.570Z,3088.00
2023-05-01T07:18:34.527Z,3076.00
2023-05-01T07:19:34.506Z,3040.00
2023-05-01T07:20:34.554Z,2980.00
2023-05-01T07:21:34.498Z,2888.00
2023-05-01T07:22:34.480Z,2796.00
2023-05-01T07:23:34.473Z,2728.00
2023-05-01T07:24:34.453Z,2620.00
2023-05-01T07:25:34.444Z,2484.00
2023-05-01T07:26:34.431Z,2392.00
2023-05-01T07:27:34.447Z,2320.00
2023-05-01T07:28:34.407Z,2248.00
2023-05-01T07:29:34.400Z,2184.00
2023-05-01T07:30:34.387Z,2136.00
2023-05-01T07:31:34.393Z,2112.00
2023-05-01T07:32:34.395Z,2092.00
2023-05-01T07:33:34.370Z,2088.00
2023-05-01T07:34:34.352Z,2112.00
2023-05-01T07:35:34.343Z,2136.00
2023-05-01T07:36:34.319Z,2164.00
2023-05-01T07:37:34.313Z,2200.00
2023-05-01T07:38:34.299Z,2244.00
2023-05-01T07:39:34.327Z,2272.00
2023-05-01T07:40:34.303Z,2312.00
2023-05-01T07:41:34.263Z,2376.00
2023-05-01T07:42:34.255Z,2464.00
2023-05-01T07:43:34.245Z,2592.00
2023-05-01T07:44:34.242Z,2700.00
2023-05-01T07:45:34.254Z,2836.00
2023-05-01T07:46:34.296Z,2976.00
2023-05-01T07:47:34.262Z,3156.00
2023-05-01T07:48:34.410Z,3516.00
2023-05-01T07:49:34.173Z,3748.00
2023-05-01T07:50:34.164Z,3996.00
2023-05-01T07:51:34.164Z,4256.00
2023-05-01T07:52:34.159Z,4624.00
2023-05-01T07:53:34.137Z,5024.00
2023-05-01T07:54:34.133Z,4988.00
2023-05-01T07:55:34.112Z,4816.00
2023-05-01T07:56:34.100Z,4804.00
2023-05-01T07:57:34.080Z,5080.00
2023-05-01T07:58:34.130Z,5444.00
2023-05-01T07:59:34.085Z,5944.00
2023-05-01T08:00:34.067Z,5932.00
2023-05-01T08:01:34.044Z,5956.00
2023-05-01T08:02:34.108Z,5604.00
2023-05-01T08:03:34.146Z,5008.00
2023-05-01T08:04:34.077Z,4220.00
2023-05-01T08:05:34.003Z,4056.00
2023-05-01T08:06:34.052Z,3816.00
2023-05-01T08:07:33.981Z,3416.00
2023-05-01T08:08:33.966Z,3160.00
2023-05-01T08:09:33.954Z,2984.00
2023-05-01T08:10:33.949Z,2844.00
2023-05-01T08:11:33.939Z,2720.00
2023-05-01T08:12:33.932Z,2592.00
2023-05-01T08:13:34.006Z,2456.00
2023-05-01T08:14:33.911Z,2340.00
2023-05-01T08:15:33.903Z,2272.00
2023-05-01T08:16:33.998Z,2252.00
2023-05-01T08:17:33.953Z,2256.00
2023-05-01T08:18:33.870Z,2276.00
2023-05-01T08:19:33.869Z,2304.00
2023-05-01T08:20:33.861Z,2340.00
2023-05-01T08:21:33.842Z,2380.00
2023-05-01T08:22:33.829Z,2408.00
2023-05-01T08:23:33.842Z,2392.00
2023-05-01T08:24:33.812Z,2352.00
2023-05-01T08:25:33.805Z,2300.00
2023-05-01T08:26:33.794Z,2240.00
2023-05-01T08:27:33.785Z,2180.00
2023-05-01T08:28:33.773Z,2140.00
2023-05-01T08:29:33.760Z,2112.00
2023-05-01T08:30:33.757Z,2108.00
2023-05-01T08:31:33.757Z,2120.00
2023-05-01T08:32:33.751Z,2128.00
2023-05-01T08:33:33.723Z,2132.00
2023-05-01T08:34:33.712Z,2124.00
2023-05-01T08:35:33.696Z,2092.00
2023-05-01T08:36:33.697Z,2048.00
2023-05-01T08:37:33.687Z,1996.00
2023-05-01T08:38:33.666Z,1968.00
2023-05-01T08:39:33.664Z,1972.00
2023-05-01T08:40:33.663Z,1988.00
2023-05-01T08:41:33.637Z,2028.00
2023-05-01T08:42:33.628Z,2076.00
2023-05-01T08:43:33.633Z,2132.00
2023-05-01T08:44:33.604Z,2200.00
2023-05-01T08:45:33.593Z,2268.00
2023-05-01T08:46:33.649Z,2332.00
2023-05-01T08:47:33.580Z,2388.00
2023-05-01T08:48:33.555Z,2424.00
2023-05-01T08:49:33.548Z,2460.00
2023-05-01T08:50:33.541Z,2484.00
2023-05-01T08:51:33.523Z,2504.00
2023-05-01T08:52:33.521Z,2524.00
2023-05-01T08:53:33.501Z,2528.00
2023-05-01T08:54:33.506Z,2524.00
2023-05-01T08:55:33.482Z,2524.00
2023-05-01T08:56:33.487Z,2528.00
2023-05-01T08:57:33.464Z,2560.00
2023-05-01T08:58:33.471Z,2628.00
2023-05-01T08:59:33.446Z,2728.00
2023-05-01T09:00:33.419Z,2856.00
2023-05-01T09:01:33.430Z,2984.00
2023-05-01T09:02:33.417Z,3040.00
2023-05-01T09:03:33.472Z,2924.00
2023-05-01T09:04:33.373Z,2832.00
2023-05-01T09:05:33.367Z,2760.00
2023-05-01T09:06:33.381Z,2712.00
2023-05-01T09:07:33.339Z,2688.00
2023-05-01T09:08:33.343Z,2656.00
2023-05-01T09:09:33.342Z,2616.00
2023-05-01T09:10:33.309Z,2564.00
2023-05-01T09:11:33.399Z,2544.00
2023-05-01T09:12:33.300Z,2564.00
2023-05-01T09:13:33.314Z,2620.00
2023-05-01T09:14:33.261Z,2696.00
2023-05-01T09:15:33.254Z,2792.00
2023-05-01T09:16:33.266Z,2924.00
2023-05-01T09:17:33.336Z,3084.00
2023-05-01T09:18:33.219Z,3232.00
2023-05-01T09:19:33.216Z,3332.00
2023-05-01T09:20:33.200Z,3376.00
2023-05-01T09:21:33.451Z,3368.00
2023-05-01T09:22:33.176Z,3348.00
2023-05-01T09:23:33.169Z,3368.00
2023-05-01T09:24:33.154Z,3452.00
2023-05-01T09:25:33.146Z,3588.00
2023-05-01T09:26:33.138Z,3732.00
2023-05-01T09:27:33.122Z,3676.00
2023-05-01T09:28:33.107Z,3700.00
2023-05-01T09:29:33.096Z,3760.00
2023-05-01T09:30:33.117Z,3784.00
2023-05-01T09:31:33.439Z,3772.00
2023-05-01T09:32:33.089Z,3716.00
2023-05-01T09:33:33.053Z,3700.00
2023-05-01T09:34:33.043Z,3416.00
2023-05-01T09:35:33.034Z,3176.00
2023-05-01T09:36:33.021Z,3076.00
2023-05-01T09:37:33.023Z,3024.00
2023-05-01T09:38:33.002Z,3024.00
2023-05-01T09:39:32.991Z,3084.00
2023-05-01T09:40:32.990Z,3176.00
2023-05-01T09:41:33.010Z,3264.00
2023-05-01T09:42:32.959Z,3372.00
2023-05-01T09:43:32.948Z,3508.00
2023-05-01T09:44:32.940Z,3716.00
2023-05-01T09:45:32.927Z,4036.00
2023-05-01T09:46:33.016Z,4428.00
2023-05-01T09:47:33.044Z,4976.00
2023-05-01T09:48:34.952Z,5016.00
2023-05-01T09:49:32.890Z,4556.00
2023-05-01T09:50:32.890Z,4228.00
2023-05-01T09:51:32.899Z,4200.00
2023-05-01T09:52:32.861Z,4204.00
2023-05-01T09:53:32.848Z,4116.00
2023-05-01T09:54:32.841Z,4020.00
2023-05-01T09:55:32.830Z,3984.00
2023-05-01T09:56:32.826Z,4016.00
2023-05-01T09:57:32.809Z,4072.00
2023-05-01T09:58:32.804Z,4120.00
2023-05-01T09:59:32.788Z,4172.00
2023-05-01T10:00:32.787Z,4272.00
2023-05-01T10:01:32.806Z,4552.00
2023-05-01T10:02:32.866Z,4660.00
2023-05-01T10:03:32.929Z,4496.00
2023-05-01T10:04:32.743Z,4276.00
2023-05-01T10:05:32.727Z,3980.00
2023-05-01T10:06:32.773Z,3872.00
2023-05-01T10:07:32.728Z,3864.00
2023-05-01T10:08:32.700Z,3872.00
2023-05-01T10:09:32.691Z,3860.00
2023-05-01T10:10:32.693Z,3808.00
2023-05-01T10:11:32.670Z,3676.00
2023-05-01T10:12:32.667Z,3484.00
2023-05-01T10:13:32.657Z,3272.00
2023-05-01T10:14:32.641Z,3044.00
2023-05-01T10:15:32.632Z,2792.00
2023-05-01T10:16:32.635Z,2564.00
2023-05-01T10:17:32.638Z,2424.00
2023-05-01T10:18:32.611Z,2412.00
2023-05-01T10:19:32.601Z,2460.00
2023-05-01T10:20:32.591Z,2440.00
2023-05-01T10:21:32.582Z,2356.00
2023-05-01T10:22:32.585Z,2308.00
2023-05-01T10:23:32.551Z,2300.00
2023-05-01T10:24:32.552Z,2320.00
2023-05-01T10:25:32.538Z,2348.00
2023-05-01T10:26:32.534Z,2356.00
2023-05-01T10:27:32.524Z,2324.00
2023-05-01T10:28:32.504Z,2316.00
2023-05-01T10:29:32.496Z,2368.00
2023-05-01T10:30:32.502Z,2496.00
2023-05-01T10:31:32.511Z,2668.00
2023-05-01T10:32:32.546Z,2848.00
2023-05-01T10:33:32.517Z,3020.00
2023-05-01T10:34:32.459Z,3156.00
2023-05-01T10:35:32.432Z,3304.00
2023-05-01T10:36:32.445Z,3464.00
2023-05-01T10:37:32.415Z,3652.00
2023-05-01T10:38:32.401Z,3844.00
2023-05-01T10:39:32.413Z,4092.00
2023-05-01T10:40:32.381Z,4384.00
2023-05-01T10:41:32.391Z,4524.00
2023-05-01T10:42:32.416Z,4468.00
2023-05-01T10:43:32.354Z,4260.00
2023-05-01T10:44:32.389Z,4412.00
2023-05-01T10:45:33.812Z,4980.00
2023-05-01T10:46:32.532Z,6108.00
2023-05-01T10:47:32.343Z,6820.00
2023-05-01T10:48:32.301Z,7952.00
2023-05-01T10:49:32.291Z,6796.00
2023-05-01T10:50:32.281Z,6612.00
2023-05-01T10:51:32.272Z,6072.00
2023-05-01T10:52:32.262Z,5288.00
2023-05-01T10:53:32.251Z,4760.00
2023-05-01T10:54:32.242Z,5252.00
2023-05-01T10:55:32.237Z,5792.00
2023-05-01T10:56:32.227Z,6104.00
2023-05-01T10:57:32.214Z,5884.00
2023-05-01T10:58:32.218Z,5924.00
2023-05-01T10:59:32.207Z,6340.00
2023-05-01T11:00:32.191Z,6592.00
2023-05-01T11:01:32.268Z,7008.00
2023-05-01T11:02:32.227Z,6860.00
2023-05-01T11:03:32.176Z,6560.00
2023-05-01T11:04:32.159Z,7788.00
2023-05-01T11:05:38.426Z,7648.00
2023-05-01T11:06:32.302Z,6360.00
2023-05-01T11:07:32.165Z,5628.00
2023-05-01T11:08:32.270Z,5204.00
2023-05-01T11:09:32.140Z,5584.00
2023-05-01T11:10:32.111Z,6396.00
2023-05-01T11:11:32.108Z,6940.00
2023-05-01T11:12:32.117Z,7320.00
2023-05-01T11:13:32.102Z,8368.00
2023-05-01T11:14:32.081Z,9056.00
2023-05-01T11:15:32.072Z,10760.00
2023-05-01T11:16:32.116Z,10332.00
2023-05-01T11:17:32.067Z,12452.00
2023-05-01T11:18:32.056Z,10740.00
2023-05-01T11:19:32.062Z,10204.00
2023-05-01T11:20:32.034Z,12428.00
2023-05-01T11:21:32.027Z,13336.00
2023-05-01T11:22:32.026Z,20960.00
2023-05-01T11:23:32.018Z,15936.00
2023-05-01T11:24:32.016Z,13168.00
2023-05-01T11:25:32.004Z,8832.00
2023-05-01T11:26:32.643Z,11720.00
2023-05-01T11:27:31.999Z,11712.00
2023-05-01T11:28:31.995Z,16800.00
2023-05-01T11:29:31.990Z,13284.00
2023-05-01T11:30:31.986Z,15620.00
2023-05-01T11:31:32.000Z,20704.00
2023-05-01T11:32:31.996Z,19584.00
2023-05-01T11:33:31.972Z,15256.00
2023-05-01T11:34:31.971Z,14904.00
2023-05-01T11:35:31.962Z,9016.00
2023-05-01T11:36:31.958Z,7932.00
2023-05-01T11:37:31.956Z,7236.00
2023-05-01T11:38:31.958Z,8264.00
2023-05-01T11:39:32.051Z,7944.00
2023-05-01T11:40:31.975Z,8644.00
2023-05-01T11:41:31.944Z,8648.00
2023-05-01T11:42:31.971Z,7980.00
2023-05-01T11:43:31.936Z,8932.00
2023-05-01T11:44:31.932Z,10156.00
2023-05-01T11:45:31.971Z,10512.00
2023-05-01T11:46:31.962Z,11796.00
2023-05-01T11:47:31.942Z,10280.00
2023-05-01T11:48:31.921Z,11820.00
2023-05-01T11:49:31.916Z,14732.00
2023-05-01T11:50:31.918Z,10496.00
2023-05-01T11:51:31.913Z,10332.00
2023-05-01T11:52:31.907Z,12104.00
2023-05-01T11:53:31.910Z,13248.00
2023-05-01T11:54:31.901Z,12592.00
2023-05-01T11:55:31.905Z,8288.00
2023-05-01T11:56:31.900Z,8120.00
2023-05-01T11:57:31.895Z,10284.00
2023-05-01T11:58:31.896Z,8420.00
2023-05-01T11:59:31.905Z,8768.00
2023-05-01T12:00:31.888Z,8348.00
2023-05-01T12:01:31.883Z,8040.00
2023-05-01T12:02:32.049Z,7284.00
2023-05-01T12:03:32.077Z,7660.00
2023-05-01T12:04:32.484Z,6180.00
2023-05-01T12:05:31.875Z,5668.00
2023-05-01T12:06:31.876Z,5336.00
2023-05-01T12:07:31.866Z,5284.00
2023-05-01T12:08:31.863Z,5556.00
2023-05-01T12:09:31.868Z,6076.00
2023-05-01T12:10:32.591Z,8324.00
2023-05-01T12:11:31.960Z,7464.00
2023-05-01T12:12:40.564Z,11596.00
2023-05-01T12:14:37.569Z,14088.00
2023-05-01T12:15:37.548Z,13828.00
2023-05-01T12:17:43.330Z,12004.00
2023-05-01T12:18:43.284Z,10408.00
2023-05-01T12:19:43.274Z,9448.00
2023-05-01T12:20:43.295Z,9904.00
2023-05-01T12:21:43.281Z,9500.00
2023-05-01T12:22:43.264Z,10112.00
2023-05-01T12:23:43.261Z,11132.00
2023-05-01T12:24:43.260Z,9384.00
2023-05-01T12:25:43.257Z,7820.00
2023-05-01T12:26:43.369Z,8392.00
2023-05-01T12:27:43.249Z,7512.00
2023-05-01T12:28:43.249Z,6756.00
2023-05-01T12:29:43.245Z,7460.00
2023-05-01T12:30:43.238Z,8024.00
2023-05-01T12:31:43.321Z,9640.00
2023-05-01T12:32:43.261Z,10564.00